sensor_id;sensor_type;location;lat;lon;timestamp;pressure;altitude;pressure_sealevel;temperature;humidity
56182;BME280;51963;46.052;14.544;2023-04-06T00:02:18;98502.16;;;-1.34;91.41
56182;BME280;51963;46.052;14.544;2023-04-06T00:04:44;98511.19;;;-1.27;91.60
56182;BME280;51963;46.052;14.544;2023-04-06T00:07:09;98517.19;;;-1.26;89.99
56182;BME280;51963;46.052;14.544;2023-04-06T00:09:35;98508.38;;;-1.37;88.59
56182;BME280;51963;46.052;14.544;2023-04-06T00:12:01;98511.81;;;-1.36;87.57
56182;BME280;51963;46.052;14.544;2023-04-06T00:14:27;98515.34;;;-1.37;87.70
56182;BME280;51963;46.052;14.544;2023-04-06T00:16:53;98499.81;;;-1.50;88.03
56182;BME280;51963;46.052;14.544;2023-04-06T00:19:19;98512.25;;;-1.42;85.58
56182;BME280;51963;46.052;14.544;2023-04-06T00:21:44;98485.13;;;-1.63;85.20
56182;BME280;51963;46.052;14.544;2023-04-06T00:24:11;98499.00;;;-1.51;86.38
56182;BME280;51963;46.052;14.544;2023-04-06T00:26:36;98497.94;;;-1.48;86.73
56182;BME280;51963;46.052;14.544;2023-04-06T00:29:06;98503.56;;;-1.54;87.43
56182;BME280;51963;46.052;14.544;2023-04-06T00:31:32;98468.97;;;-1.66;87.57
56182;BME280;51963;46.052;14.544;2023-04-06T00:33:58;98509.38;;;-1.51;87.18
56182;BME280;51963;46.052;14.544;2023-04-06T00:36:23;98504.84;;;-1.60;88.05
56182;BME280;51963;46.052;14.544;2023-04-06T00:38:49;98502.97;;;-1.58;88.54
56182;BME280;51963;46.052;14.544;2023-04-06T00:41:15;98500.03;;;-1.53;89.26
56182;BME280;51963;46.052;14.544;2023-04-06T00:43:41;98508.53;;;-1.51;89.80
56182;BME280;51963;46.052;14.544;2023-04-06T00:46:07;98513.50;;;-1.48;89.68
56182;BME280;51963;46.052;14.544;2023-04-06T00:48:33;98503.91;;;-1.59;90.03
56182;BME280;51963;46.052;14.544;2023-04-06T00:51:00;98494.59;;;-1.74;89.89
56182;BME280;51963;46.052;14.544;2023-04-06T00:53:25;98504.97;;;-1.74;90.76
56182;BME280;51963;46.052;14.544;2023-04-06T00:55:52;98507.66;;;-1.76;90.81
56182;BME280;51963;46.052;14.544;2023-04-06T00:58:19;98503.59;;;-1.80;91.39
56182;BME280;51963;46.052;14.544;2023-04-06T01:00:50;98473.78;;;-1.99;92.08
56182;BME280;51963;46.052;14.544;2023-04-06T01:03:19;98492.00;;;-1.87;92.13
56182;BME280;51963;46.052;14.544;2023-04-06T01:05:46;98486.81;;;-1.87;92.42
56182;BME280;51963;46.052;14.544;2023-04-06T01:08:19;98499.06;;;-1.77;92.58
56182;BME280;51963;46.052;14.544;2023-04-06T01:10:47;98481.13;;;-1.93;93.63
56182;BME280;51963;46.052;14.544;2023-04-06T01:13:33;98492.22;;;-1.90;94.26
56182;BME280;51963;46.052;14.544;2023-04-06T01:16:02;98509.41;;;-1.89;93.97
56182;BME280;51963;46.052;14.544;2023-04-06T01:18:59;98486.00;;;-2.01;94.39
56182;BME280;51963;46.052;14.544;2023-04-06T01:21:29;98500.91;;;-1.92;94.46
56182;BME280;51963;46.052;14.544;2023-04-06T01:24:14;98502.16;;;-1.84;95.23
56182;BME280;51963;46.052;14.544;2023-04-06T01:27:12;98491.41;;;-1.91;95.48
56182;BME280;51963;46.052;14.544;2023-04-06T01:29:53;98492.41;;;-1.94;95.95
56182;BME280;51963;46.052;14.544;2023-04-06T01:32:57;98500.41;;;-1.97;96.63
56182;BME280;51963;46.052;14.544;2023-04-06T01:35:49;98497.09;;;-1.99;97.96
56182;BME280;51963;46.052;14.544;2023-04-06T01:38:18;98493.41;;;-1.57;96.50
56182;BME280;51963;46.052;14.544;2023-04-06T01:40:46;98497.41;;;-1.78;97.25
56182;BME280;51963;46.052;14.544;2023-04-06T01:43:12;98474.75;;;-1.63;97.02
56182;BME280;51963;46.052;14.544;2023-04-06T01:45:56;98467.97;;;-1.89;96.90
56182;BME280;51963;46.052;14.544;2023-04-06T01:48:27;98490.97;;;-1.85;98.50
56182;BME280;51963;46.052;14.544;2023-04-06T01:50:54;98477.09;;;-1.97;98.04
56182;BME280;51963;46.052;14.544;2023-04-06T01:53:25;98483.63;;;-2.04;97.19
56182;BME280;51963;46.052;14.544;2023-04-06T01:55:56;98484.34;;;-2.02;96.66
56182;BME280;51963;46.052;14.544;2023-04-06T01:58:26;98470.47;;;-2.14;92.11
56182;BME280;51963;46.052;14.544;2023-04-06T02:00:52;98489.53;;;-2.02;90.93
56182;BME280;51963;46.052;14.544;2023-04-06T02:03:18;98491.41;;;-2.04;91.33
56182;BME280;51963;46.052;14.544;2023-04-06T02:05:45;98488.06;;;-2.06;91.95
56182;BME280;51963;46.052;14.544;2023-04-06T02:08:31;98486.53;;;-2.09;93.09
56182;BME280;51963;46.052;14.544;2023-04-06T02:10:57;98458.88;;;-2.34;93.44
56182;BME280;51963;46.052;14.544;2023-04-06T02:13:30;98484.34;;;-2.28;94.58
56182;BME280;51963;46.052;14.544;2023-04-06T02:15:56;98489.53;;;-2.28;96.16
56182;BME280;51963;46.052;14.544;2023-04-06T02:18:22;98483.84;;;-2.33;96.74
56182;BME280;51963;46.052;14.544;2023-04-06T02:20:48;98485.81;;;-2.37;96.65
56182;BME280;51963;46.052;14.544;2023-04-06T02:23:37;98487.97;;;-2.43;95.46
56182;BME280;51963;46.052;14.544;2023-04-06T02:26:28;98489.00;;;-2.46;95.20
56182;BME280;51963;46.052;14.544;2023-04-06T02:28:54;98479.59;;;-2.47;94.90
56182;BME280;51963;46.052;14.544;2023-04-06T02:31:22;98481.13;;;-2.44;95.51
56182;BME280;51963;46.052;14.544;2023-04-06T02:34:10;98481.84;;;-2.42;95.60
56182;BME280;51963;46.052;14.544;2023-04-06T02:36:51;98484.84;;;-2.48;96.17
56182;BME280;51963;46.052;14.544;2023-04-06T02:39:17;98480.59;;;-2.49;97.30
56182;BME280;51963;46.052;14.544;2023-04-06T02:41:46;98477.41;;;-2.53;97.64
56182;BME280;51963;46.052;14.544;2023-04-06T02:44:15;98480.84;;;-2.40;97.86
56182;BME280;51963;46.052;14.544;2023-04-06T02:46:43;98443.94;;;-2.69;97.71
56182;BME280;51963;46.052;14.544;2023-04-06T02:49:12;98486.19;;;-2.56;98.24
56182;BME280;51963;46.052;14.544;2023-04-06T02:52:10;98477.31;;;-2.39;98.13
56182;BME280;51963;46.052;14.544;2023-04-06T02:54:36;98473.25;;;-2.56;96.84
56182;BME280;51963;46.052;14.544;2023-04-06T02:57:03;98467.75;;;-2.64;96.41
56182;BME280;51963;46.052;14.544;2023-04-06T02:59:37;98477.91;;;-2.61;96.64
56182;BME280;51963;46.052;14.544;2023-04-06T03:02:10;98464.00;;;-2.73;96.97
56182;BME280;51963;46.052;14.544;2023-04-06T03:04:36;98473.13;;;-2.67;97.39
56182;BME280;51963;46.052;14.544;2023-04-06T03:07:04;98475.72;;;-2.67;97.98
56182;BME280;51963;46.052;14.544;2023-04-06T03:09:37;98464.25;;;-2.50;98.91
56182;BME280;51963;46.052;14.544;2023-04-06T03:12:04;98467.34;;;-2.58;98.01
56182;BME280;51963;46.052;14.544;2023-04-06T03:14:37;98463.44;;;-2.25;97.05
56182;BME280;51963;46.052;14.544;2023-04-06T03:17:03;98433.38;;;-2.66;97.97
56182;BME280;51963;46.052;14.544;2023-04-06T03:19:29;98432.41;;;-2.78;97.68
56182;BME280;51963;46.052;14.544;2023-04-06T03:21:58;98459.25;;;-2.66;98.21
56182;BME280;51963;46.052;14.544;2023-04-06T03:24:24;98456.66;;;-2.66;98.00
56182;BME280;51963;46.052;14.544;2023-04-06T03:26:50;98472.13;;;-2.64;98.76
56182;BME280;51963;46.052;14.544;2023-04-06T03:29:16;98455.41;;;-2.73;99.03
56182;BME280;51963;46.052;14.544;2023-04-06T03:31:41;98459.75;;;-2.74;99.25
56182;BME280;51963;46.052;14.544;2023-04-06T03:34:28;98467.53;;;-2.61;98.83
56182;BME280;51963;46.052;14.544;2023-04-06T03:36:53;98469.19;;;-2.60;98.68
56182;BME280;51963;46.052;14.544;2023-04-06T03:39:20;98467.53;;;-2.61;97.86
56182;BME280;51963;46.052;14.544;2023-04-06T03:41:47;98480.91;;;-2.67;97.98
56182;BME280;51963;46.052;14.544;2023-04-06T03:44:30;98476.41;;;-2.78;98.37
56182;BME280;51963;46.052;14.544;2023-04-06T03:46:56;98490.50;;;-2.69;98.36
56182;BME280;51963;46.052;14.544;2023-04-06T03:49:22;98480.97;;;-2.82;99.04
56182;BME280;51963;46.052;14.544;2023-04-06T03:51:50;98476.47;;;-2.92;99.27
56182;BME280;51963;46.052;14.544;2023-04-06T03:54:16;98467.66;;;-3.03;100.00
56182;BME280;51963;46.052;14.544;2023-04-06T03:56:42;98467.22;;;-3.10;100.00
56182;BME280;51963;46.052;14.544;2023-04-06T03:59:07;98493.50;;;-3.03;100.00
56182;BME280;51963;46.052;14.544;2023-04-06T04:01:33;98489.19;;;-3.02;100.00
56182;BME280;51963;46.052;14.544;2023-04-06T04:04:00;98456.53;;;-3.18;100.00
56182;BME280;51963;46.052;14.544;2023-04-06T04:06:26;98491.03;;;-3.04;100.00
56182;BME280;51963;46.052;14.544;2023-04-06T04:08:51;98482.75;;;-3.10;100.00
56182;BME280;51963;46.052;14.544;2023-04-06T04:11:17;98485.41;;;-3.11;100.00
56182;BME280;51963;46.052;14.544;2023-04-06T04:13:47;98491.25;;;-3.07;100.00
56182;BME280;51963;46.052;14.544;2023-04-06T04:16:13;98490.84;;;-3.01;100.00
56182;BME280;51963;46.052;14.544;2023-04-06T04:18:38;98491.38;;;-2.96;100.00
56182;BME280;51963;46.052;14.544;2023-04-06T04:21:05;98495.91;;;-3.00;100.00
56182;BME280;51963;46.052;14.544;2023-04-06T04:23:31;98492.69;;;-3.03;100.00
56182;BME280;51963;46.052;14.544;2023-04-06T04:25:57;98497.09;;;-2.91;100.00
56182;BME280;51963;46.052;14.544;2023-04-06T04:28:23;98476.66;;;-2.96;100.00
56182;BME280;51963;46.052;14.544;2023-04-06T04:30:49;98498.09;;;-2.93;100.00
56182;BME280;51963;46.052;14.544;2023-04-06T04:33:14;98492.69;;;-3.03;100.00
56182;BME280;51963;46.052;14.544;2023-04-06T04:35:42;98496.03;;;-2.88;100.00
56182;BME280;51963;46.052;14.544;2023-04-06T04:38:11;98505.78;;;-2.92;100.00
56182;BME280;51963;46.052;14.544;2023-04-06T04:40:43;98504.00;;;-2.91;100.00
56182;BME280;51963;46.052;14.544;2023-04-06T04:43:10;98500.41;;;-2.89;100.00
56182;BME280;51963;46.052;14.544;2023-04-06T04:45:38;98498.41;;;-2.98;100.00
56182;BME280;51963;46.052;14.544;2023-04-06T04:48:13;98506.56;;;-3.04;100.00
56182;BME280;51963;46.052;14.544;2023-04-06T04:50:51;98501.88;;;-3.12;100.00
56182;BME280;51963;46.052;14.544;2023-04-06T04:53:20;98518.03;;;-3.08;100.00
56182;BME280;51963;46.052;14.544;2023-04-06T04:55:46;98496.34;;;-3.20;100.00
56182;BME280;51963;46.052;14.544;2023-04-06T04:58:13;98507.97;;;-3.13;100.00
56182;BME280;51963;46.052;14.544;2023-04-06T05:00:57;98516.72;;;-3.01;100.00
56182;BME280;51963;46.052;14.544;2023-04-06T05:03:25;98519.09;;;-2.98;100.00
56182;BME280;51963;46.052;14.544;2023-04-06T05:06:04;98523.97;;;-2.66;100.00
56182;BME280;51963;46.052;14.544;2023-04-06T05:08:33;98520.13;;;-2.73;100.00
56182;BME280;51963;46.052;14.544;2023-04-06T05:11:00;98519.56;;;-2.38;100.00
56182;BME280;51963;46.052;14.544;2023-04-06T05:13:30;98515.78;;;-2.60;100.00
56182;BME280;51963;46.052;14.544;2023-04-06T05:15:57;98525.34;;;-2.60;100.00
56182;BME280;51963;46.052;14.544;2023-04-06T05:18:27;98512.16;;;-2.70;100.00
56182;BME280;51963;46.052;14.544;2023-04-06T05:20:53;98522.75;;;-2.60;100.00
56182;BME280;51963;46.052;14.544;2023-04-06T05:23:26;98517.66;;;-2.62;100.00
56182;BME280;51963;46.052;14.544;2023-04-06T05:25:52;98514.97;;;-2.60;100.00
56182;BME280;51963;46.052;14.544;2023-04-06T05:28:21;98523.91;;;-2.52;100.00
56182;BME280;51963;46.052;14.544;2023-04-06T05:30:47;98530.44;;;-2.46;100.00
56182;BME280;51963;46.052;14.544;2023-04-06T05:33:14;98530.34;;;-2.18;100.00
56182;BME280;51963;46.052;14.544;2023-04-06T05:36:10;98533.69;;;-2.16;100.00
56182;BME280;51963;46.052;14.544;2023-04-06T05:38:40;98532.03;;;-2.17;100.00
56182;BME280;51963;46.052;14.544;2023-04-06T05:41:31;98527.97;;;-2.22;100.00
56182;BME280;51963;46.052;14.544;2023-04-06T05:43:57;98524.88;;;-2.14;100.00
56182;BME280;51963;46.052;14.544;2023-04-06T05:46:24;98518.84;;;-2.14;100.00
56182;BME280;51963;46.052;14.544;2023-04-06T05:48:52;98501.84;;;-1.93;100.00
56182;BME280;51963;46.052;14.544;2023-04-06T05:51:23;98531.19;;;-1.79;100.00
56182;BME280;51963;46.052;14.544;2023-04-06T05:53:48;98532.75;;;-1.77;100.00
56182;BME280;51963;46.052;14.544;2023-04-06T05:56:14;98529.31;;;-1.77;100.00
56182;BME280;51963;46.052;14.544;2023-04-06T05:58:41;98537.59;;;-1.72;100.00
56182;BME280;51963;46.052;14.544;2023-04-06T06:01:10;98530.75;;;-1.73;100.00
56182;BME280;51963;46.052;14.544;2023-04-06T06:03:40;98510.88;;;-1.85;100.00
56182;BME280;51963;46.052;14.544;2023-04-06T06:06:06;98532.28;;;-1.57;99.41
56182;BME280;51963;46.052;14.544;2023-04-06T06:08:44;98528.97;;;-1.46;99.03
56182;BME280;51963;46.052;14.544;2023-04-06T06:11:14;98531.00;;;-1.39;98.53
56182;BME280;51963;46.052;14.544;2023-04-06T06:13:41;98531.66;;;-1.35;98.50
56182;BME280;51963;46.052;14.544;2023-04-06T06:16:08;98518.03;;;-1.26;98.01
56182;BME280;51963;46.052;14.544;2023-04-06T06:18:40;98523.88;;;-1.11;96.85
56182;BME280;51963;46.052;14.544;2023-04-06T06:21:07;98508.22;;;-1.09;95.80
56182;BME280;51963;46.052;14.544;2023-04-06T06:23:33;98511.91;;;-1.00;94.83
56182;BME280;51963;46.052;14.544;2023-04-06T06:26:01;98511.34;;;-0.93;93.97
56182;BME280;51963;46.052;14.544;2023-04-06T06:28:28;98501.25;;;-0.84;93.99
56182;BME280;51963;46.052;14.544;2023-04-06T06:30:55;98518.63;;;-0.74;93.57
56182;BME280;51963;46.052;14.544;2023-04-06T06:33:23;98511.44;;;-0.70;93.08
56182;BME280;51963;46.052;14.544;2023-04-06T06:35:52;98527.78;;;-0.56;92.93
56182;BME280;51963;46.052;14.544;2023-04-06T06:38:18;98520.13;;;-0.47;91.38
56182;BME280;51963;46.052;14.544;2023-04-06T06:40:45;98523.25;;;-0.30;90.45
56182;BME280;51963;46.052;14.544;2023-04-06T06:43:12;98523.72;;;-0.25;89.71
56182;BME280;51963;46.052;14.544;2023-04-06T06:45:52;98520.22;;;-0.12;89.47
56182;BME280;51963;46.052;14.544;2023-04-06T06:48:18;98521.41;;;-0.05;87.80
56182;BME280;51963;46.052;14.544;2023-04-06T06:50:43;98519.78;;;0.05;86.81
56182;BME280;51963;46.052;14.544;2023-04-06T06:53:11;98503.47;;;0.14;86.98
56182;BME280;51963;46.052;14.544;2023-04-06T06:55:37;98517.53;;;0.35;88.88
56182;BME280;51963;46.052;14.544;2023-04-06T06:58:02;98510.34;;;0.38;86.06
56182;BME280;51963;46.052;14.544;2023-04-06T07:00:28;98513.50;;;0.53;85.42
56182;BME280;51963;46.052;14.544;2023-04-06T07:02:54;98510.53;;;0.69;87.02
56182;BME280;51963;46.052;14.544;2023-04-06T07:05:20;98500.22;;;0.68;83.93
56182;BME280;51963;46.052;14.544;2023-04-06T07:07:46;98493.47;;;0.77;84.11
56182;BME280;51963;46.052;14.544;2023-04-06T07:10:11;98517.31;;;1.05;82.90
56182;BME280;51963;46.052;14.544;2023-04-06T07:12:40;98498.59;;;1.11;81.53
56182;BME280;51963;46.052;14.544;2023-04-06T07:15:06;98517.78;;;1.64;76.41
56182;BME280;51963;46.052;14.544;2023-04-06T07:17:36;98503.22;;;1.82;75.13
56182;BME280;51963;46.052;14.544;2023-04-06T07:20:01;98520.69;;;1.92;74.62
56182;BME280;51963;46.052;14.544;2023-04-06T07:22:28;98501.25;;;2.05;72.42
56182;BME280;51963;46.052;14.544;2023-04-06T07:24:53;98517.38;;;1.89;70.14
56182;BME280;51963;46.052;14.544;2023-04-06T07:27:20;98503.44;;;2.31;69.67
56182;BME280;51963;46.052;14.544;2023-04-06T07:29:48;98501.47;;;2.64;66.07
56182;BME280;51963;46.052;14.544;2023-04-06T07:32:14;98505.22;;;2.82;64.50
56182;BME280;51963;46.052;14.544;2023-04-06T07:34:40;98512.16;;;3.22;64.08
56182;BME280;51963;46.052;14.544;2023-04-06T07:37:06;98497.31;;;3.32;62.40
56182;BME280;51963;46.052;14.544;2023-04-06T07:39:33;98510.63;;;3.69;62.76
56182;BME280;51963;46.052;14.544;2023-04-06T07:41:59;98487.25;;;3.67;63.53
56182;BME280;51963;46.052;14.544;2023-04-06T07:44:25;98502.59;;;4.28;63.52
56182;BME280;51963;46.052;14.544;2023-04-06T07:46:52;98504.44;;;4.73;59.60
56182;BME280;51963;46.052;14.544;2023-04-06T07:49:23;98495.97;;;5.43;56.62
56182;BME280;51963;46.052;14.544;2023-04-06T07:51:52;98497.34;;;5.74;55.61
56182;BME280;51963;46.052;14.544;2023-04-06T07:54:18;98495.25;;;6.04;55.18
56182;BME280;51963;46.052;14.544;2023-04-06T07:56:45;98498.59;;;5.88;54.00
56182;BME280;51963;46.052;14.544;2023-04-06T07:59:11;98491.88;;;6.12;53.14
56182;BME280;51963;46.052;14.544;2023-04-06T08:01:37;98495.59;;;6.36;51.46
56182;BME280;51963;46.052;14.544;2023-04-06T08:04:03;98473.06;;;6.68;48.59
56182;BME280;51963;46.052;14.544;2023-04-06T08:06:29;98470.38;;;6.51;48.00
56182;BME280;51963;46.052;14.544;2023-04-06T08:08:54;98476.03;;;6.73;49.06
56182;BME280;51963;46.052;14.544;2023-04-06T08:11:20;98480.69;;;7.04;49.07
56182;BME280;51963;46.052;14.544;2023-04-06T08:13:46;98477.69;;;8.06;46.48
56182;BME280;51963;46.052;14.544;2023-04-06T08:16:15;98473.28;;;8.39;43.03
56182;BME280;51963;46.052;14.544;2023-04-06T08:18:40;98472.09;;;8.58;42.39
56182;BME280;51963;46.052;14.544;2023-04-06T08:21:06;98468.31;;;8.52;41.46
56182;BME280;51963;46.052;14.544;2023-04-06T08:23:32;98465.22;;;8.80;40.17
56182;BME280;51963;46.052;14.544;2023-04-06T08:25:58;98456.69;;;8.70;40.26
56182;BME280;51963;46.052;14.544;2023-04-06T08:28:23;98469.03;;;8.77;39.69
56182;BME280;51963;46.052;14.544;2023-04-06T08:30:51;98466.34;;;8.86;40.69
56182;BME280;51963;46.052;14.544;2023-04-06T08:33:16;98440.69;;;9.03;37.20
56182;BME280;51963;46.052;14.544;2023-04-06T08:35:42;98458.75;;;9.52;36.18
56182;BME280;51963;46.052;14.544;2023-04-06T08:38:08;98445.59;;;9.06;38.47
56182;BME280;51963;46.052;14.544;2023-04-06T08:40:37;98460.59;;;9.29;39.39
56182;BME280;51963;46.052;14.544;2023-04-06T08:43:06;98455.03;;;9.62;38.75
56182;BME280;51963;46.052;14.544;2023-04-06T08:45:34;98456.53;;;10.09;40.41
56182;BME280;51963;46.052;14.544;2023-04-06T08:48:02;98452.53;;;10.44;38.56
56182;BME280;51963;46.052;14.544;2023-04-06T08:50:32;98453.31;;;9.54;36.62
56182;BME280;51963;46.052;14.544;2023-04-06T08:52:59;98444.03;;;9.73;38.78
56182;BME280;51963;46.052;14.544;2023-04-06T08:55:25;98456.19;;;10.42;41.17
56182;BME280;51963;46.052;14.544;2023-04-06T08:57:52;98445.38;;;10.96;38.98
56182;BME280;51963;46.052;14.544;2023-04-06T09:00:20;98437.78;;;11.29;34.37
56182;BME280;51963;46.052;14.544;2023-04-06T09:02:49;98414.66;;;10.73;36.87
56182;BME280;51963;46.052;14.544;2023-04-06T09:05:15;98417.19;;;11.53;36.21
56182;BME280;51963;46.052;14.544;2023-04-06T09:07:41;98422.97;;;11.64;36.25
56182;BME280;51963;46.052;14.544;2023-04-06T09:10:07;98426.19;;;11.59;34.81
56182;BME280;51963;46.052;14.544;2023-04-06T09:12:34;98425.78;;;11.91;34.83
56182;BME280;51963;46.052;14.544;2023-04-06T09:15:02;98422.88;;;12.14;33.57
56182;BME280;51963;46.052;14.544;2023-04-06T09:17:29;98426.34;;;11.29;35.76
56182;BME280;51963;46.052;14.544;2023-04-06T09:19:57;98424.06;;;11.76;34.44
56182;BME280;51963;46.052;14.544;2023-04-06T09:22:23;98421.66;;;11.24;34.76
56182;BME280;51963;46.052;14.544;2023-04-06T09:24:53;98412.84;;;10.74;35.49
56182;BME280;51963;46.052;14.544;2023-04-06T09:27:34;98418.13;;;11.45;35.45
56182;BME280;51963;46.052;14.544;2023-04-06T09:30:10;98408.56;;;11.73;36.47
56182;BME280;51963;46.052;14.544;2023-04-06T09:32:52;98399.72;;;11.94;35.18
56182;BME280;51963;46.052;14.544;2023-04-06T09:35:19;98398.22;;;12.20;34.99
56182;BME280;51963;46.052;14.544;2023-04-06T09:37:47;98395.50;;;12.55;34.61
56182;BME280;51963;46.052;14.544;2023-04-06T09:40:13;98378.88;;;12.20;33.72
56182;BME280;51963;46.052;14.544;2023-04-06T09:42:45;98368.41;;;12.80;33.29
56182;BME280;51963;46.052;14.544;2023-04-06T09:45:11;98376.44;;;13.47;30.75
56182;BME280;51963;46.052;14.544;2023-04-06T09:47:39;98384.56;;;13.73;30.38
56182;BME280;51963;46.052;14.544;2023-04-06T09:50:07;98380.91;;;13.06;32.31
56182;BME280;51963;46.052;14.544;2023-04-06T09:52:40;98366.09;;;13.91;30.34
56182;BME280;51963;46.052;14.544;2023-04-06T09:55:08;98360.19;;;13.89;30.86
56182;BME280;51963;46.052;14.544;2023-04-06T09:58:02;98363.75;;;13.29;31.12
56182;BME280;51963;46.052;14.544;2023-04-06T10:00:32;98363.22;;;14.00;30.66
56182;BME280;51963;46.052;14.544;2023-04-06T10:05:43;98335.84;;;14.77;30.42
56182;BME280;51963;46.052;14.544;2023-04-06T10:08:13;98348.94;;;15.29;28.10
56182;BME280;51963;46.052;14.544;2023-04-06T10:10:39;98324.25;;;15.40;27.54
56182;BME280;51963;46.052;14.544;2023-04-06T10:13:07;98332.50;;;15.76;28.29
56182;BME280;51963;46.052;14.544;2023-04-06T10:15:37;98341.34;;;15.95;29.12
56182;BME280;51963;46.052;14.544;2023-04-06T10:18:05;98338.19;;;14.92;27.34
56182;BME280;51963;46.052;14.544;2023-04-06T10:26:19;98328.56;;;15.60;26.58
56182;BME280;51963;46.052;14.544;2023-04-06T10:28:47;98322.00;;;15.19;27.09
56182;BME280;51963;46.052;14.544;2023-04-06T10:31:13;98321.28;;;15.49;26.48
56182;BME280;51963;46.052;14.544;2023-04-06T10:33:39;98327.34;;;15.37;26.81
56182;BME280;51963;46.052;14.544;2023-04-06T10:36:11;98320.53;;;16.77;25.65
56182;BME280;51963;46.052;14.544;2023-04-06T10:38:38;98317.56;;;16.55;25.42
56182;BME280;51963;46.052;14.544;2023-04-06T10:41:06;98311.03;;;16.39;24.67
56182;BME280;51963;46.052;14.544;2023-04-06T10:43:37;98312.22;;;15.94;27.68
56182;BME280;51963;46.052;14.544;2023-04-06T10:46:05;98296.13;;;16.62;25.74
56182;BME280;51963;46.052;14.544;2023-04-06T10:48:44;98304.72;;;16.64;26.37
56182;BME280;51963;46.052;14.544;2023-04-06T10:51:16;98288.09;;;17.28;25.49
56182;BME280;51963;46.052;14.544;2023-04-06T10:53:45;98284.66;;;19.01;23.65
56182;BME280;51963;46.052;14.544;2023-04-06T10:56:16;98292.66;;;19.80;21.94
56182;BME280;51963;46.052;14.544;2023-04-06T10:58:49;98297.53;;;19.22;23.86
56182;BME280;51963;46.052;14.544;2023-04-06T11:01:20;98270.56;;;20.17;22.42
56182;BME280;51963;46.052;14.544;2023-04-06T11:03:48;98275.34;;;20.70;21.06
56182;BME280;51963;46.052;14.544;2023-04-06T11:06:21;98264.81;;;22.08;20.05
56182;BME280;51963;46.052;14.544;2023-04-06T11:08:48;98278.78;;;21.36;19.97
56182;BME280;51963;46.052;14.544;2023-04-06T11:11:17;98267.44;;;21.29;19.30
56182;BME280;51963;46.052;14.544;2023-04-06T11:13:50;98272.13;;;18.27;22.12
56182;BME280;51963;46.052;14.544;2023-04-06T11:18:57;98251.41;;;20.69;20.28
56182;BME280;51963;46.052;14.544;2023-04-06T11:21:38;98250.03;;;22.31;19.20
56182;BME280;51963;46.052;14.544;2023-04-06T11:24:16;98249.44;;;21.34;19.35
56182;BME280;51963;46.052;14.544;2023-04-06T11:26:50;98249.00;;;22.89;17.58
56182;BME280;51963;46.052;14.544;2023-04-06T11:29:18;98241.09;;;23.19;17.04
56182;BME280;51963;46.052;14.544;2023-04-06T11:31:52;98230.91;;;22.95;17.43
56182;BME280;51963;46.052;14.544;2023-04-06T11:34:22;98238.63;;;19.04;22.00
56182;BME280;51963;46.052;14.544;2023-04-06T11:36:54;98232.22;;;21.94;19.09
56182;BME280;51963;46.052;14.544;2023-04-06T11:39:21;98234.94;;;21.35;18.68
56182;BME280;51963;46.052;14.544;2023-04-06T11:42:01;98239.50;;;23.07;18.02
56182;BME280;51963;46.052;14.544;2023-04-06T11:44:37;98223.41;;;24.23;17.04
56182;BME280;51963;46.052;14.544;2023-04-06T11:47:08;98216.66;;;22.84;21.23
56182;BME280;51963;46.052;14.544;2023-04-06T11:49:38;98218.53;;;22.63;18.04
56182;BME280;51963;46.052;14.544;2023-04-06T11:52:21;98213.13;;;22.83;17.63
56182;BME280;51963;46.052;14.544;2023-04-06T11:54:52;98203.53;;;23.48;17.62
56182;BME280;51963;46.052;14.544;2023-04-06T11:57:18;98206.44;;;24.82;16.18
56182;BME280;51963;46.052;14.544;2023-04-06T11:59:44;98199.13;;;23.68;18.07
56182;BME280;51963;46.052;14.544;2023-04-06T12:02:12;98197.59;;;23.51;17.05
56182;BME280;51963;46.052;14.544;2023-04-06T12:04:38;98191.31;;;22.02;18.08
56182;BME280;51963;46.052;14.544;2023-04-06T12:07:04;98193.09;;;20.64;20.02
56182;BME280;51963;46.052;14.544;2023-04-06T12:09:30;98190.97;;;20.01;20.26
56182;BME280;51963;46.052;14.544;2023-04-06T12:11:57;98186.97;;;22.99;18.98
56182;BME280;51963;46.052;14.544;2023-04-06T12:14:25;98186.97;;;19.54;20.48
56182;BME280;51963;46.052;14.544;2023-04-06T12:16:51;98184.56;;;19.79;21.80
56182;BME280;51963;46.052;14.544;2023-04-06T12:19:17;98179.22;;;22.56;18.91
56182;BME280;51963;46.052;14.544;2023-04-06T12:21:42;98171.94;;;22.05;19.68
56182;BME280;51963;46.052;14.544;2023-04-06T12:24:08;98169.78;;;22.12;19.37
56182;BME280;51963;46.052;14.544;2023-04-06T12:26:34;98168.59;;;21.62;19.45
56182;BME280;51963;46.052;14.544;2023-04-06T12:29:00;98154.72;;;20.74;19.75
56182;BME280;51963;46.052;14.544;2023-04-06T12:31:34;98155.81;;;19.75;20.61
56182;BME280;51963;46.052;14.544;2023-04-06T12:34:02;98153.69;;;19.77;20.86
56182;BME280;51963;46.052;14.544;2023-04-06T12:36:29;98135.25;;;20.51;20.21
56182;BME280;51963;46.052;14.544;2023-04-06T12:38:55;98140.03;;;21.40;20.35
56182;BME280;51963;46.052;14.544;2023-04-06T12:41:21;98145.41;;;21.35;18.93
56182;BME280;51963;46.052;14.544;2023-04-06T12:43:46;98134.78;;;22.28;19.42
56182;BME280;51963;46.052;14.544;2023-04-06T12:46:12;98137.94;;;21.52;19.58
56182;BME280;51963;46.052;14.544;2023-04-06T12:48:38;98132.78;;;24.66;16.65
56182;BME280;51963;46.052;14.544;2023-04-06T12:51:05;98134.91;;;24.69;16.31
56182;BME280;51963;46.052;14.544;2023-04-06T12:53:32;98128.34;;;22.24;20.70
56182;BME280;51963;46.052;14.544;2023-04-06T12:55:58;98122.84;;;20.40;19.61
56182;BME280;51963;46.052;14.544;2023-04-06T12:58:25;98130.75;;;22.46;18.64
56182;BME280;51963;46.052;14.544;2023-04-06T13:00:57;98115.94;;;22.59;18.87
56182;BME280;51963;46.052;14.544;2023-04-06T13:03:33;98122.41;;;22.32;19.76
56182;BME280;51963;46.052;14.544;2023-04-06T13:06:00;98121.88;;;22.25;17.92
56182;BME280;51963;46.052;14.544;2023-04-06T13:08:26;98119.41;;;22.60;18.91
56182;BME280;51963;46.052;14.544;2023-04-06T13:10:55;98113.28;;;23.75;18.50
56182;BME280;51963;46.052;14.544;2023-04-06T13:13:27;98114.22;;;22.89;17.64